Aviation Digital Data Service (ADDS)

Output produced by METARs form (1924 UTC 27 November 2014)
found at http://www.aviationweather.gov/adds/metars/
 
KMDT 271856Z 31006KT 10SM FEW026 BKN034 OVC060 02/M03 A3004 RMK AO2 SLP175 T00221028
KMDT 271756Z 33008KT 10SM SCT035 OVC060 02/M03 A3003 RMK AO2 SLP174 T00221028 10022 20006 58004
KMDT 271656Z 33011KT 10SM OVC060 02/M03 A3003 RMK AO2 SLP175 T00221028
KMDT 271556Z 33008KT 10SM OVC060 02/M02 A3005 RMK AO2 SLP178 T00171022
KMDT 271456Z 33005KT 10SM OVC060 02/M02 A3004 RMK AO2 SLP178 T00171022 51012
KMDT 271356Z 31007KT 10SM OVC065 01/M02 A3004 RMK AO2 SLP177 T00111017
KMDT 271256Z 31008KT 10SM BKN080 01/M02 A3003 RMK AO2 SLP173 T00111017
KMDT 271156Z 32005KT 10SM BKN075 01/M03 A3001 RMK AO2 SLP165 4/001 70074 T00061028 10017 20006 53008
KMDT 271056Z 32005KT 10SM OVC070 01/M02 A3000 RMK AO2 SLP161 T00111022
KMDT 270956Z 31004KT 10SM OVC070 01/M02 A2999 RMK AO2 SLP158 T00111017
KMDT 270856Z 30007KT 10SM FEW050 OVC070 01/M02 A2998 RMK AO2 SLP157 T00111017 50005
KMDT 270756Z 29009KT 10SM FEW050 OVC070 01/M01 A2999 RMK AO2 SLP161 T00111011
KMDT 270656Z 32008KT 10SM OVC075 01/M01 A2998 RMK AO2 SLP155 T00111011
KMDT 270556Z 32007KT 10SM FEW025 OVC075 01/M01 A2997 RMK AO2 SLP153 4/002 60000 T00111011 10017 20011 51011
KMDT 270456Z 33004KT 10SM SCT023 OVC090 01/M02 A2996 RMK AO2 SLP151 T00111017 400560000
KMDT 270356Z 31010KT 10SM BKN020 OVC110 01/M01 A2996 RMK AO2 SLP150 T00111011
KMDT 270256Z 32009KT 10SM BKN020 BKN060 OVC110 01/M01 A2994 RMK AO2 SLP141 60000 T00111011 55001
KMDT 270238Z 31011KT 10SM BKN020 BKN060 OVC110 01/M01 A2994 RMK AO2 T00111011
KMDT 270156Z COR 32007KT 10SM FEW025 BKN060 OVC110 01/M01 A2992 RMK AO2 SNE55 SLP136 P0000 T00111011
KMDT 270141Z 32007KT 10SM -SN SCT025 BKN060 OVC110 01/M01 A2993 RMK AO2 PCPN VRY LGT P0000 T00111006
KMDT 270113Z 31009KT 9SM -SN BKN025 OVC050 01/M01 A2994 RMK AO2 PCPN VRY LGT P0000 T00111006
KMDT 270056Z 32011KT 9SM -SN SCT020 OVC045 01/M01 A2994 RMK AO2 SLP142 PCPN VRY LGT P0000 T00111006
KMDT 270026Z 31009KT 8SM -SN FEW005 SCT020 OVC045 01/M01 A2994 RMK AO2 PCPN VRY LGT P0000 T00111006
KMDT 262356Z 31012KT 7SM -SN FEW005 BKN015 OVC040 01/00 A2994 RMK AO2 SLP141 4/002 P0002 60015 T00110000 10011 20000 50003
KMDT 262256Z 31012KT 3SM -SN BR FEW005 BKN018 OVC040 01/00 A2995 RMK AO2 SLP146 P0002 T00110000
KMDT 262156Z 31014KT 4SM -SN BR SCT006 BKN015 OVC050 01/00 A2994 RMK AO2 SLP141 P0002 T00110000
KMDT 262137Z 30013KT 4SM -SN BR SCT005 BKN015 OVC035 01/00 A2994 RMK AO2 P0001 T00110000
KMDT 262115Z 30010KT 2 1/2SM -SN BR SCT005 BKN015 OVC025 01/00 A2994 RMK AO2 P0000 T00060000
KMDT 262056Z 31009KT 1 1/2SM -SN BR SCT005 BKN018 OVC025 01/00 A2993 RMK AO2 SLP138 P0004 60009 T00060000 56020
KMDT 262027Z 31010KT 1SM R13/P6000FT -SN BR SCT004 BKN018 OVC025 01/00 A2993 RMK AO2 P0002 T00060000
KMDT 261956Z 31009KT 4SM -SN BR SCT005 BKN017 OVC028 01/00 A2994 RMK AO2 SLP141 P0001 T00110000
KMDT 261916Z 31006KT 3SM -SN BR OVC005 01/00 A2994 RMK AO2 P0000 T00060000
KMDT 261856Z 30004KT 3/4SM R13/P6000FT -SN BR OVC005 00/00 A2994 RMK AO2 SLP140 P0004 T00000000
KMDT 261847Z 33004KT 3/4SM R13/6000VP6000FT -SN BR OVC005 00/00 A2993 RMK AO2 P0004 T00000000
KMDT 261756Z COR 33004KT 3/4SM R13/5000VP6000FT -SN BR OVC004 01/M01 A2999 RMK AO2 SLP158 P0007 4/002 60059 T00061006 10039 20000 58042
KMDT 261705Z 33004KT 1/2SM R13/3500V4500FT SN FG OVC004 00/00 A3002 RMK AO2 PRESFR P0002 T00000000
KMDT 261656Z 32005KT 3/4SM R13/4500V5000FT -SN BR OVC004 00/00 A3004 RMK AO2 PRESFR SLP175 P0012 T00000000
KMDT 261629Z 33003KT 3/4SM R13/4500V5500FT -SN BR OVC004 00/00 A3005 RMK AO2 PRESFR P0008 T00000000
KMDT 261556Z 31004KT 1/2SM R13/3000V4000FT SN FG OVC004 00/00 A3008 RMK AO2 SLP189 P0013 T00000000
KMDT 261456Z 00000KT 3/4SM R13/5500VP6000FT -SN BR BKN007 OVC012 01/00 A3012 RMK AO2 RAE37SNB04 SLP202 P0015 60027 T00060000 53004
KMDT 261424Z COR 06003KT 1 1/2SM R13/6000VP6000FT -SNRA OVC009 01/M01 A3010 RMK AO2 SNB04 P0008 T00061006
KMDT 261409Z 03005KT 1 1/2SM SNRA OVC010 02/01 A3012 RMK AO2 SNB04 P0003 T00170006
KMDT 261356Z 04005KT 3SM -RA BR FEW009 OVC012 02/01 A3012 RMK AO2 PRESRR SLP201 P0007 T00220006
KMDT 261335Z 04006KT 3SM RA BR BKN012 OVC017 03/01 A3009 RMK AO2 SFC VIS 4 PRESFR P0003 T00330011
KMDT 261256Z 03004KT 3SM -RA BR OVC020 04/02 A3010 RMK AO2 SFC VIS 6 SLP195 P0005 T00390017
KMDT 261156Z 09003KT 8SM -RA OVC029 04/01 A3010 RMK AO2 SLP197 P0003 60004 70004 T00390011 10056 20039 56015
KMDT 261136Z 00000KT 7SM -RA OVC029 05/M01 A3011 RMK AO2 P0002 T00501006
KMDT 261056Z 31006KT 10SM -RA OVC036 05/M01 A3011 RMK AO2 RAB06 SLP198 P0001 T00501006
KMDT 260956Z 36004KT 10SM BKN050 OVC070 06/M02 A3011 RMK AO2 SLP198 VIRGA OHD AND ALQDS T00561017
KMDT 260856Z 33003KT 10SM OVC110 05/M01 A3015 RMK AO2 SLP211 T00501006 58006
KMDT 260756Z 34005KT 10SM OVC130 05/01 A3015 RMK AO2 SLP212 T00500006